• Join FlightAware (Why Join?)
  • Login
  • US Flag 
04:08AM EDT


 

Airport Tracker/Info


-or-


 

Live Flight TrackerFlight Track Log ✈ BJS444 ✈ 27-Apr-2013 ✈ KPBI - KAGS

Flight Track Log - Related Links

Times and Time Zones

All times are in EDT time to prevent confusion due to time zone crossing. See the BJS444 flight status page for this flight to view local times or setup timezone preferences in your user account.

Time Position Orientation Groundspeed Altitude Reporting Facility
EDT Latitude Longitude Course Direction KTS MPH feet Rate Location/Type
09:11AM 26.7236 -79.9942 340° North 182 209 6,900  Level Miami Center
09:12AM 26.7964 -80.0056 352° North 229 264 10,100 2,400 Climbing Miami Center
09:13AM 26.8300 -80.0903 294° West 269 310 11,700 1,380 Climbing Miami Center
09:14AM 26.8400 -80.1953 276° West 331 381 12,900 1,080 Climbing Miami Center
09:15AM 27.0009 -80.3968 334° Northwest  Level FlightAware Approximate
09:15AM 26.8647 -80.3100 284° West 381 438 13,900  Level Miami Center
09:16AM 27.1027 -80.4477 340° North  Level FlightAware Approximate
09:16AM 26.9631 -80.3853 326° Northwest 370 426 16,100  Level Miami Center
09:17AM 27.0472 -80.4389 330° Northwest 376 433 18,600 2,820 Climbing Miami Center
09:18AM 27.1483 -80.4958 333° Northwest 387 445 21,800 2,820 Climbing Miami Center
09:19AM 27.2492 -80.5550 332° Northwest 399 459 24,300 2,340 Climbing Miami Center
09:20AM 27.3519 -80.6167 332° Northwest 405 466 26,500 2,160 Climbing Miami Center
09:21AM 27.4567 -80.6786 332° Northwest 410 472 28,700 2,160 Climbing Miami Center
09:22AM 27.5572 -80.7406 331° Northwest 415 478 30,900 2,040 Climbing Miami Center
09:23AM 27.6600 -80.8028 332° Northwest 415 478 32,800 1,860 Climbing Miami Center
09:24AM 27.7672 -80.8508 338° Northwest 410 472 34,700 1,800 Climbing Miami Center
09:25AM 27.8772 -80.8783 348° North 405 466 36,500 1,680 Climbing Miami Center
09:26AM 27.9828 -80.9031 348° North 393 452 38,100 1,200 Climbing Miami Center
09:27AM 28.0886 -80.9281 348° North 393 452 39,000 420 Climbing Miami Center
09:28AM 28.2150 -80.9608 347° North 400 460 39,000  Level Miami Center
09:29AM 28.3247 -80.9886 347° North 405 466 39,000  Level Miami Center
09:30AM 28.4386 -81.0186 347° North 412 474 39,000  Level Miami Center
09:31AM 28.5525 -81.0489 347° North 412 474 39,000  Level Miami Center
09:32AM 28.6861 -81.0844 347° North 411 473 39,000  Level Jacksonville Center
09:33AM 28.7992 -81.1133 347° North 411 473 39,000  Level Jacksonville Center
09:34AM 28.9122 -81.1397 348° North 411 473 39,000  Level Jacksonville Center
09:35AM 29.0233 -81.1711 346° North 411 473 39,000  Level Jacksonville Center
09:36AM 29.1364 -81.1975 348° North 411 473 39,000  Level Jacksonville Center
09:37AM 29.2472 -81.2289 346° North 411 473 39,000  Level Jacksonville Center
09:38AM 29.3583 -81.2558 348° North 411 473 39,000  Level Jacksonville Center
09:39AM 29.4694 -81.2847 347° North 411 473 39,000  Level Jacksonville Center
09:40AM 29.5783 -81.3142 347° North 411 473 39,000  Level Jacksonville Center
09:41AM 29.6853 -81.3531 342° North 411 473 39,000  Level Jacksonville Center
09:42AM 29.7861 -81.4111 333° Northwest 406 467 39,000  Level Jacksonville Center
09:43AM 29.8847 -81.4672 334° Northwest 394 453 39,000  Level Jacksonville Center
09:44AM 29.9836 -81.5256 333° Northwest 394 453 39,000  Level Jacksonville Center
09:45AM 30.0925 -81.5506 349° North 394 453 39,000  Level Jacksonville Center
09:46AM 30.1989 -81.5586 356° North 404 465 39,000  Level Jacksonville Center
09:47AM 30.3139 -81.5692 355° North 411 473 39,000  Level Jacksonville Center
09:48AM 30.4289 -81.5819 355° North 411 473 39,000  Level Jacksonville Center
09:49AM 30.5439 -81.5997 352° North 411 473 39,000  Level Jacksonville Center
09:50AM 30.6589 -81.6150 353° North 411 473 39,000 -120 Level Jacksonville Center
09:51AM 30.7719 -81.6306 353° North 406 467 38,800 -300 Descending Jacksonville Center
09:52AM 30.8825 -81.6436 354° North 406 467 38,400 -960 Descending Jacksonville Center
09:53AM 30.9892 -81.6567 354° North 399 459 36,900 -1,500 Descending Jacksonville Center
09:54AM 31.0958 -81.6722 353° North 388 447 35,400 -1,560 Descending Jacksonville Center
09:55AM 31.2044 -81.6853 354° North 388 447 33,800 -1,620 Descending Jacksonville Center
09:56AM 31.3278 -81.7033 353° North 409 471 32,200 -1,740 Descending Jacksonville Center
09:57AM 31.4533 -81.7164 355° North 443 510 30,400 -1,800 Descending Jacksonville Center
09:58AM 31.5956 -81.7339 354° North 464 534 28,600 -1,680 Descending Jacksonville Center
09:59AM 31.7250 -81.7494 354° North 464 534 27,100 -1,500 Descending Jacksonville Center
10:00AM 31.8378 -81.7653 353° North 464 534 25,600 -1,500 Descending Jacksonville Center
10:01AM 31.9758 -81.7831 354° North 458 527 24,100 -1,020 Descending Jacksonville Center
10:02AM 32.0928 -81.7989 353° North 435 501 23,600 -1,200 Descending Jacksonville Center
10:03AM 32.2017 -81.8122 354° North 423 487 21,800 -1,980 Descending Jacksonville Center
10:05AM 32.4367 -81.8436 354° North 411 473 17,800 -1,860 Descending Atlanta Center
10:06AM 32.5456 -81.8556 355° North 399 459 16,300 -1,740 Descending Atlanta Center
10:07AM 32.6500 -81.8703 353° North 385 443 14,400 -1,920 Descending Atlanta Center
10:08AM 32.7464 -81.8853 353° North 370 426 12,500 -1,680 Descending Atlanta Center
10:09AM 32.8406 -81.8953 355° North 349 402 11,100 -780 Descending Atlanta Center
10:10AM 32.9283 -81.9081 353° North 334 384 11,000 -420 Descending Atlanta Center
10:11AM 33.0100 -81.9183 354° North 312 359 10,300 -1,260 Descending Atlanta Center
10:12AM 33.0894 -81.9289 354° North 299 344 8,500 -2,100 Descending Atlanta Center
10:13AM 33.1606 -81.9394 353° North 272 313 6,100 -2,520 Descending Atlanta Center
10:14AM 33.2253 -81.9478 354° North 255 293 3,500 -1,800 Descending Atlanta Center
10:15AM 33.2839 -81.9464 North 227 261 2,600 -1,080 Descending Atlanta Center
10:16AM 33.3236 -81.9556 349° North 179 206 1,400 -960 Descending Atlanta Center
10:17AM 33.3614 -81.9669 346° North 156 180 700 -720 Descending Atlanta Center
10:20AM 33.3667 -81.9500 157° South  Level FlightAware Approximate